sensor_id;sensor_type;location;lat;lon;timestamp;pressure;altitude;pressure_sealevel;temperature;humidity
64352;BME280;50680;52.626;-8.668;2022-09-14T00:01:20;101246.13;;;7.77;100.00
64352;BME280;50680;52.626;-8.668;2022-09-14T00:04:00;101266.00;;;7.80;100.00
64352;BME280;50680;52.626;-8.668;2022-09-14T00:06:28;101264.56;;;7.72;100.00
64352;BME280;50680;52.626;-8.668;2022-09-14T00:08:57;101267.09;;;7.74;100.00
64352;BME280;50680;52.626;-8.668;2022-09-14T00:11:25;101246.59;;;7.65;100.00
64352;BME280;50680;52.626;-8.668;2022-09-14T00:13:53;101260.19;;;7.73;100.00
64352;BME280;50680;52.626;-8.668;2022-09-14T00:16:25;101258.13;;;7.81;100.00
64352;BME280;50680;52.626;-8.668;2022-09-14T00:18:54;101261.63;;;7.80;100.00
64352;BME280;50680;52.626;-8.668;2022-09-14T00:21:22;101270.22;;;7.84;100.00
64352;BME280;50680;52.626;-8.668;2022-09-14T00:23:49;101254.84;;;7.76;100.00
64352;BME280;50680;52.626;-8.668;2022-09-14T00:26:19;101258.25;;;7.78;100.00
64352;BME280;50680;52.626;-8.668;2022-09-14T00:28:52;101238.25;;;7.55;100.00
64352;BME280;50680;52.626;-8.668;2022-09-14T00:31:20;101236.50;;;7.56;100.00
64352;BME280;50680;52.626;-8.668;2022-09-14T00:33:49;101247.84;;;7.55;100.00
64352;BME280;50680;52.626;-8.668;2022-09-14T00:36:22;101207.38;;;7.21;100.00
64352;BME280;50680;52.626;-8.668;2022-09-14T00:38:50;101257.94;;;7.40;100.00
64352;BME280;50680;52.626;-8.668;2022-09-14T00:41:21;101259.66;;;7.41;100.00
64352;BME280;50680;52.626;-8.668;2022-09-14T00:46:30;101253.91;;;7.31;100.00
64352;BME280;50680;52.626;-8.668;2022-09-14T00:49:01;101220.75;;;7.11;100.00
64352;BME280;50680;52.626;-8.668;2022-09-14T00:51:29;101258.19;;;7.34;100.00
64352;BME280;50680;52.626;-8.668;2022-09-14T00:53:57;101241.28;;;7.21;100.00
64352;BME280;50680;52.626;-8.668;2022-09-14T00:56:26;101245.88;;;7.14;100.00
64352;BME280;50680;52.626;-8.668;2022-09-14T00:58:54;101238.34;;;7.06;100.00
64352;BME280;50680;52.626;-8.668;2022-09-14T01:01:25;101237.41;;;7.07;100.00
64352;BME280;50680;52.626;-8.668;2022-09-14T01:03:52;101239.03;;;7.11;100.00
64352;BME280;50680;52.626;-8.668;2022-09-14T01:09:39;101240.53;;;7.17;100.00
64352;BME280;50680;52.626;-8.668;2022-09-14T01:20:40;101200.00;;;6.85;100.00
64352;BME280;50680;52.626;-8.668;2022-09-14T01:29:33;101242.56;;;7.09;100.00
64352;BME280;50680;52.626;-8.668;2022-09-14T01:35:28;101248.88;;;7.27;100.00
64352;BME280;50680;52.626;-8.668;2022-09-14T01:38:01;101237.63;;;7.25;100.00
64352;BME280;50680;52.626;-8.668;2022-09-14T01:43:07;101248.47;;;7.14;100.00
64352;BME280;50680;52.626;-8.668;2022-09-14T01:45:38;101247.09;;;7.04;100.00
64352;BME280;50680;52.626;-8.668;2022-09-14T01:48:09;101207.91;;;6.82;100.00
64352;BME280;50680;52.626;-8.668;2022-09-14T01:50:39;101240.16;;;7.04;100.00
64352;BME280;50680;52.626;-8.668;2022-09-14T01:56:11;101235.69;;;6.83;100.00
64352;BME280;50680;52.626;-8.668;2022-09-14T01:58:50;101240.25;;;6.76;100.00
64352;BME280;50680;52.626;-8.668;2022-09-14T02:01:28;101251.91;;;6.66;100.00
64352;BME280;50680;52.626;-8.668;2022-09-14T02:04:01;101240.91;;;6.57;100.00
64352;BME280;50680;52.626;-8.668;2022-09-14T02:06:36;101254.75;;;6.59;100.00
64352;BME280;50680;52.626;-8.668;2022-09-14T02:09:04;101251.44;;;6.54;100.00
64352;BME280;50680;52.626;-8.668;2022-09-14T02:11:32;101262.88;;;6.49;100.00
64352;BME280;50680;52.626;-8.668;2022-09-14T02:13:59;101248.66;;;6.34;100.00
64352;BME280;50680;52.626;-8.668;2022-09-14T02:16:26;101256.19;;;6.42;100.00
64352;BME280;50680;52.626;-8.668;2022-09-14T02:18:53;101252.88;;;6.36;100.00
64352;BME280;50680;52.626;-8.668;2022-09-14T02:21:23;101242.47;;;6.36;100.00
64352;BME280;50680;52.626;-8.668;2022-09-14T02:23:51;101254.28;;;6.47;100.00
64352;BME280;50680;52.626;-8.668;2022-09-14T02:26:20;101211.94;;;6.15;100.00
64352;BME280;50680;52.626;-8.668;2022-09-14T02:28:48;101238.47;;;6.26;100.00
64352;BME280;50680;52.626;-8.668;2022-09-14T02:36:52;101237.00;;;6.17;100.00
64352;BME280;50680;52.626;-8.668;2022-09-14T02:39:36;101220.16;;;6.02;100.00
64352;BME280;50680;52.626;-8.668;2022-09-14T02:42:26;101233.97;;;6.05;100.00
64352;BME280;50680;52.626;-8.668;2022-09-14T02:45:03;101240.97;;;6.02;100.00
64352;BME280;50680;52.626;-8.668;2022-09-14T02:47:41;101197.47;;;5.78;100.00
64352;BME280;50680;52.626;-8.668;2022-09-14T02:55:40;101225.03;;;5.85;100.00
64352;BME280;50680;52.626;-8.668;2022-09-14T02:58:10;101191.81;;;5.65;100.00
64352;BME280;50680;52.626;-8.668;2022-09-14T03:00:41;101238.63;;;5.93;100.00
64352;BME280;50680;52.626;-8.668;2022-09-14T03:03:09;101222.47;;;5.83;100.00
64352;BME280;50680;52.626;-8.668;2022-09-14T03:05:37;101239.53;;;5.92;100.00
64352;BME280;50680;52.626;-8.668;2022-09-14T03:08:04;101238.81;;;5.87;100.00
64352;BME280;50680;52.626;-8.668;2022-09-14T03:10:32;101184.34;;;5.54;100.00
64352;BME280;50680;52.626;-8.668;2022-09-14T03:12:59;101221.88;;;5.74;100.00
64352;BME280;50680;52.626;-8.668;2022-09-14T03:15:26;101216.91;;;5.68;100.00
64352;BME280;50680;52.626;-8.668;2022-09-14T03:17:53;101216.91;;;5.68;100.00
64352;BME280;50680;52.626;-8.668;2022-09-14T03:20:24;101189.72;;;5.48;100.00
64352;BME280;50680;52.626;-8.668;2022-09-14T03:22:51;101209.16;;;5.64;100.00
64352;BME280;50680;52.626;-8.668;2022-09-14T03:25:18;101203.25;;;5.59;100.00
64352;BME280;50680;52.626;-8.668;2022-09-14T03:27:49;101239.31;;;5.72;100.00
64352;BME280;50680;52.626;-8.668;2022-09-14T03:30:17;101228.28;;;5.63;100.00
64352;BME280;50680;52.626;-8.668;2022-09-14T03:32:45;101216.53;;;5.50;100.00
64352;BME280;50680;52.626;-8.668;2022-09-14T03:35:14;101218.16;;;5.54;100.00
64352;BME280;50680;52.626;-8.668;2022-09-14T03:37:42;101214.78;;;5.51;100.00
64352;BME280;50680;52.626;-8.668;2022-09-14T03:40:11;101219.97;;;5.52;100.00
64352;BME280;50680;52.626;-8.668;2022-09-14T03:42:45;101227.56;;;5.58;100.00
64352;BME280;50680;52.626;-8.668;2022-09-14T03:45:13;101231.16;;;5.54;100.00
64352;BME280;50680;52.626;-8.668;2022-09-14T03:47:40;101213.16;;;5.46;100.00
64352;BME280;50680;52.626;-8.668;2022-09-14T03:50:08;101219.25;;;5.47;100.00
64352;BME280;50680;52.626;-8.668;2022-09-14T03:52:36;101212.41;;;5.43;100.00
64352;BME280;50680;52.626;-8.668;2022-09-14T03:55:04;101225.97;;;5.54;100.00
64352;BME280;50680;52.626;-8.668;2022-09-14T03:57:32;101225.13;;;5.54;100.00
64352;BME280;50680;52.626;-8.668;2022-09-14T03:59:59;101234.66;;;5.53;100.00
64352;BME280;50680;52.626;-8.668;2022-09-14T04:02:27;101217.00;;;5.35;100.00
64352;BME280;50680;52.626;-8.668;2022-09-14T04:04:55;101227.84;;;5.49;100.00
64352;BME280;50680;52.626;-8.668;2022-09-14T04:07:21;101223.53;;;5.48;100.00
64352;BME280;50680;52.626;-8.668;2022-09-14T04:09:48;101215.13;;;5.40;100.00
64352;BME280;50680;52.626;-8.668;2022-09-14T04:12:15;101214.88;;;5.47;100.00
64352;BME280;50680;52.626;-8.668;2022-09-14T04:14:42;101161.28;;;5.14;100.00
64352;BME280;50680;52.626;-8.668;2022-09-14T04:17:09;101163.06;;;5.12;100.00
64352;BME280;50680;52.626;-8.668;2022-09-14T04:19:35;101167.31;;;5.16;100.00
64352;BME280;50680;52.626;-8.668;2022-09-14T04:22:07;101182.41;;;5.31;100.00
64352;BME280;50680;52.626;-8.668;2022-09-14T04:24:34;101195.00;;;5.45;100.00
64352;BME280;50680;52.626;-8.668;2022-09-14T04:27:01;101134.72;;;5.04;100.00
64352;BME280;50680;52.626;-8.668;2022-09-14T04:29:28;101210.44;;;5.51;100.00
64352;BME280;50680;52.626;-8.668;2022-09-14T04:31:56;101217.44;;;5.49;100.00
64352;BME280;50680;52.626;-8.668;2022-09-14T04:34:23;101225.53;;;5.40;100.00
64352;BME280;50680;52.626;-8.668;2022-09-14T04:36:50;101206.00;;;5.25;100.00
64352;BME280;50680;52.626;-8.668;2022-09-14T04:39:18;101228.28;;;5.34;100.00
64352;BME280;50680;52.626;-8.668;2022-09-14T04:41:45;101219.00;;;5.25;100.00
64352;BME280;50680;52.626;-8.668;2022-09-14T04:44:12;101178.31;;;4.94;100.00
64352;BME280;50680;52.626;-8.668;2022-09-14T04:46:39;101222.63;;;5.21;100.00
64352;BME280;50680;52.626;-8.668;2022-09-14T04:49:14;101225.78;;;5.31;100.00
64352;BME280;50680;52.626;-8.668;2022-09-14T04:51:41;101207.50;;;5.34;100.00
64352;BME280;50680;52.626;-8.668;2022-09-14T04:54:11;101226.72;;;5.58;100.00
64352;BME280;50680;52.626;-8.668;2022-09-14T04:56:38;101164.47;;;5.23;100.00
64352;BME280;50680;52.626;-8.668;2022-09-14T04:59:05;101211.47;;;5.45;100.00
64352;BME280;50680;52.626;-8.668;2022-09-14T05:01:36;101198.81;;;5.35;100.00
64352;BME280;50680;52.626;-8.668;2022-09-14T05:04:04;101175.31;;;5.08;100.00
64352;BME280;50680;52.626;-8.668;2022-09-14T05:06:33;101170.38;;;4.99;100.00
64352;BME280;50680;52.626;-8.668;2022-09-14T05:09:02;101212.09;;;5.24;100.00
64352;BME280;50680;52.626;-8.668;2022-09-14T05:11:33;101204.63;;;5.13;100.00
64352;BME280;50680;52.626;-8.668;2022-09-14T05:14:01;101197.81;;;5.09;100.00
64352;BME280;50680;52.626;-8.668;2022-09-14T05:16:35;101219.78;;;5.28;100.00
64352;BME280;50680;52.626;-8.668;2022-09-14T05:19:05;101223.63;;;5.45;100.00
64352;BME280;50680;52.626;-8.668;2022-09-14T05:21:34;101230.06;;;5.61;100.00
64352;BME280;50680;52.626;-8.668;2022-09-14T05:24:04;101226.41;;;5.67;100.00
64352;BME280;50680;52.626;-8.668;2022-09-14T05:26:32;101232.88;;;5.83;100.00
64352;BME280;50680;52.626;-8.668;2022-09-14T05:29:00;101231.50;;;6.00;100.00
64352;BME280;50680;52.626;-8.668;2022-09-14T05:31:27;101213.50;;;5.92;100.00
64352;BME280;50680;52.626;-8.668;2022-09-14T05:33:55;101200.22;;;6.01;100.00
64352;BME280;50680;52.626;-8.668;2022-09-14T05:36:23;101175.91;;;6.02;100.00
64352;BME280;50680;52.626;-8.668;2022-09-14T05:38:50;101212.13;;;6.35;100.00
64352;BME280;50680;52.626;-8.668;2022-09-14T05:41:17;101147.75;;;6.14;100.00
64352;BME280;50680;52.626;-8.668;2022-09-14T05:43:44;101211.78;;;6.71;100.00
64352;BME280;50680;52.626;-8.668;2022-09-14T05:46:13;101166.31;;;6.55;100.00
64352;BME280;50680;52.626;-8.668;2022-09-14T05:48:41;101193.16;;;6.82;100.00
64352;BME280;50680;52.626;-8.668;2022-09-14T05:51:16;101211.56;;;7.01;100.00
64352;BME280;50680;52.626;-8.668;2022-09-14T05:53:50;101195.88;;;7.03;100.00
64352;BME280;50680;52.626;-8.668;2022-09-14T05:56:18;101197.16;;;7.14;100.00
64352;BME280;50680;52.626;-8.668;2022-09-14T05:58:45;101200.59;;;7.17;100.00
64352;BME280;50680;52.626;-8.668;2022-09-14T06:01:18;101223.25;;;7.38;100.00
64352;BME280;50680;52.626;-8.668;2022-09-14T06:03:46;101198.25;;;7.32;100.00
64352;BME280;50680;52.626;-8.668;2022-09-14T06:06:16;101229.69;;;7.51;100.00
64352;BME280;50680;52.626;-8.668;2022-09-14T06:08:43;101228.59;;;7.57;100.00
64352;BME280;50680;52.626;-8.668;2022-09-14T06:11:14;101215.72;;;7.52;100.00
64352;BME280;50680;52.626;-8.668;2022-09-14T06:13:42;101180.88;;;7.31;100.00
64352;BME280;50680;52.626;-8.668;2022-09-14T06:16:12;101249.63;;;7.76;100.00
64352;BME280;50680;52.626;-8.668;2022-09-14T06:18:40;101217.31;;;7.57;100.00
64352;BME280;50680;52.626;-8.668;2022-09-14T06:21:08;101251.75;;;7.88;100.00
64352;BME280;50680;52.626;-8.668;2022-09-14T06:23:35;101229.28;;;7.84;100.00
64352;BME280;50680;52.626;-8.668;2022-09-14T06:26:04;101252.97;;;8.02;100.00
64352;BME280;50680;52.626;-8.668;2022-09-14T06:28:31;101261.28;;;8.12;100.00
64352;BME280;50680;52.626;-8.668;2022-09-14T06:30:58;101224.47;;;7.96;100.00
64352;BME280;50680;52.626;-8.668;2022-09-14T06:33:25;101259.03;;;8.24;100.00
64352;BME280;50680;52.626;-8.668;2022-09-14T06:35:56;101263.19;;;8.28;100.00
64352;BME280;50680;52.626;-8.668;2022-09-14T06:38:24;101266.22;;;8.40;100.00
64352;BME280;50680;52.626;-8.668;2022-09-14T06:40:53;101249.00;;;8.36;100.00
64352;BME280;50680;52.626;-8.668;2022-09-14T06:43:23;101231.50;;;8.38;100.00
64352;BME280;50680;52.626;-8.668;2022-09-14T06:46:03;101266.00;;;8.66;100.00
64352;BME280;50680;52.626;-8.668;2022-09-14T06:48:33;101186.78;;;8.23;100.00
64352;BME280;50680;52.626;-8.668;2022-09-14T06:51:10;101284.44;;;8.84;100.00
64352;BME280;50680;52.626;-8.668;2022-09-14T06:53:37;101282.41;;;8.91;100.00
64352;BME280;50680;52.626;-8.668;2022-09-14T06:56:04;101267.72;;;8.88;100.00
64352;BME280;50680;52.626;-8.668;2022-09-14T06:58:32;101289.53;;;9.08;100.00
64352;BME280;50680;52.626;-8.668;2022-09-14T07:01:12;101268.72;;;9.04;100.00
64352;BME280;50680;52.626;-8.668;2022-09-14T07:03:41;101240.97;;;9.02;100.00
64352;BME280;50680;52.626;-8.668;2022-09-14T07:06:15;101268.44;;;9.31;100.00
64352;BME280;50680;52.626;-8.668;2022-09-14T07:08:42;101254.41;;;9.32;100.00
64352;BME280;50680;52.626;-8.668;2022-09-14T07:11:11;101268.59;;;9.47;100.00
64352;BME280;50680;52.626;-8.668;2022-09-14T07:13:38;101216.31;;;9.27;100.00
64352;BME280;50680;52.626;-8.668;2022-09-14T07:16:06;101291.28;;;9.85;100.00
64352;BME280;50680;52.626;-8.668;2022-09-14T07:18:33;101253.06;;;9.81;100.00
64352;BME280;50680;52.626;-8.668;2022-09-14T07:21:05;101287.34;;;10.31;100.00
64352;BME280;50680;52.626;-8.668;2022-09-14T07:23:34;101280.47;;;10.46;100.00
64352;BME280;50680;52.626;-8.668;2022-09-14T07:26:10;101252.50;;;10.47;100.00
64352;BME280;50680;52.626;-8.668;2022-09-14T07:28:38;101290.19;;;10.79;100.00
64352;BME280;50680;52.626;-8.668;2022-09-14T07:31:17;101222.59;;;10.51;100.00
64352;BME280;50680;52.626;-8.668;2022-09-14T07:33:44;101304.50;;;11.07;100.00
64352;BME280;50680;52.626;-8.668;2022-09-14T07:36:12;101267.44;;;10.97;100.00
64352;BME280;50680;52.626;-8.668;2022-09-14T07:38:39;101282.25;;;11.14;100.00
64352;BME280;50680;52.626;-8.668;2022-09-14T07:41:27;101212.38;;;10.80;100.00
64352;BME280;50680;52.626;-8.668;2022-09-14T07:43:57;101262.81;;;11.18;100.00
64352;BME280;50680;52.626;-8.668;2022-09-14T07:46:30;101300.72;;;11.46;100.00
64352;BME280;50680;52.626;-8.668;2022-09-14T07:49:01;101309.06;;;11.54;100.00
64352;BME280;50680;52.626;-8.668;2022-09-14T07:51:29;101257.50;;;11.36;100.00
64352;BME280;50680;52.626;-8.668;2022-09-14T07:53:57;101229.38;;;11.22;100.00
64352;BME280;50680;52.626;-8.668;2022-09-14T07:56:26;101314.84;;;11.77;100.00
64352;BME280;50680;52.626;-8.668;2022-09-14T07:58:55;101309.81;;;11.88;100.00
64352;BME280;50680;52.626;-8.668;2022-09-14T08:01:44;101233.22;;;11.48;100.00
64352;BME280;50680;52.626;-8.668;2022-09-14T08:04:12;101298.66;;;12.00;100.00
64352;BME280;50680;52.626;-8.668;2022-09-14T08:06:39;101294.16;;;12.02;100.00
64352;BME280;50680;52.626;-8.668;2022-09-14T08:09:07;101260.94;;;11.85;100.00
64352;BME280;50680;52.626;-8.668;2022-09-14T08:11:36;101302.88;;;12.19;100.00
64352;BME280;50680;52.626;-8.668;2022-09-14T08:14:08;101268.06;;;11.83;100.00
64352;BME280;50680;52.626;-8.668;2022-09-14T08:16:36;101301.47;;;12.13;100.00
64352;BME280;50680;52.626;-8.668;2022-09-14T08:19:07;101311.03;;;12.30;100.00
64352;BME280;50680;52.626;-8.668;2022-09-14T08:21:37;101277.50;;;12.18;100.00
64352;BME280;50680;52.626;-8.668;2022-09-14T08:24:16;101306.38;;;12.50;100.00
64352;BME280;50680;52.626;-8.668;2022-09-14T08:26:44;101292.28;;;12.51;100.00
64352;BME280;50680;52.626;-8.668;2022-09-14T08:29:12;101294.31;;;12.46;100.00
64352;BME280;50680;52.626;-8.668;2022-09-14T08:31:39;101302.63;;;12.54;100.00
64352;BME280;50680;52.626;-8.668;2022-09-14T08:34:07;101300.97;;;12.67;100.00
64352;BME280;50680;52.626;-8.668;2022-09-14T08:36:39;101252.44;;;12.43;100.00
64352;BME280;50680;52.626;-8.668;2022-09-14T08:39:09;101267.13;;;12.61;100.00
64352;BME280;50680;52.626;-8.668;2022-09-14T08:46:47;101270.19;;;12.84;100.00
64352;BME280;50680;52.626;-8.668;2022-09-14T08:52:27;101299.75;;;13.32;100.00
64352;BME280;50680;52.626;-8.668;2022-09-14T08:55:00;101294.94;;;13.24;100.00
64352;BME280;50680;52.626;-8.668;2022-09-14T09:02:42;101310.47;;;13.58;100.00
64352;BME280;50680;52.626;-8.668;2022-09-14T09:10:50;101288.06;;;13.07;100.00
64352;BME280;50680;52.626;-8.668;2022-09-14T09:13:20;101332.66;;;13.25;100.00
64352;BME280;50680;52.626;-8.668;2022-09-14T09:15:51;101328.53;;;13.21;100.00
64352;BME280;50680;52.626;-8.668;2022-09-14T09:21:06;101286.94;;;12.97;100.00
64352;BME280;50680;52.626;-8.668;2022-09-14T09:23:34;101254.59;;;12.81;100.00
64352;BME280;50680;52.626;-8.668;2022-09-14T09:26:30;101309.31;;;13.04;100.00
64352;BME280;50680;52.626;-8.668;2022-09-14T09:28:59;101317.69;;;13.25;100.00
64352;BME280;50680;52.626;-8.668;2022-09-14T09:31:38;101309.38;;;13.33;100.00
64352;BME280;50680;52.626;-8.668;2022-09-14T09:34:05;101244.53;;;13.16;100.00
64352;BME280;50680;52.626;-8.668;2022-09-14T09:36:35;101341.50;;;13.81;100.00
64352;BME280;50680;52.626;-8.668;2022-09-14T09:39:03;101335.47;;;13.94;100.00
64352;BME280;50680;52.626;-8.668;2022-09-14T09:41:43;101250.84;;;13.57;100.00
64352;BME280;50680;52.626;-8.668;2022-09-14T09:44:10;101305.56;;;14.07;100.00
64352;BME280;50680;52.626;-8.668;2022-09-14T09:46:44;101262.09;;;14.00;100.00
64352;BME280;50680;52.626;-8.668;2022-09-14T09:51:50;101335.75;;;14.71;100.00
64352;BME280;50680;52.626;-8.668;2022-09-14T09:54:27;101313.91;;;14.69;100.00
64352;BME280;50680;52.626;-8.668;2022-09-14T09:59:41;101328.31;;;14.90;100.00
64352;BME280;50680;52.626;-8.668;2022-09-14T10:02:29;101329.53;;;14.84;100.00
64352;BME280;50680;52.626;-8.668;2022-09-14T10:05:03;101327.56;;;14.88;100.00
64352;BME280;50680;52.626;-8.668;2022-09-14T10:07:33;101293.41;;;14.59;100.00
64352;BME280;50680;52.626;-8.668;2022-09-14T10:10:06;101319.88;;;14.58;100.00
64352;BME280;50680;52.626;-8.668;2022-09-14T10:12:35;101309.94;;;14.48;100.00
64352;BME280;50680;52.626;-8.668;2022-09-14T10:15:25;101272.13;;;14.35;100.00
64352;BME280;50680;52.626;-8.668;2022-09-14T10:23:25;101273.84;;;14.49;100.00
64352;BME280;50680;52.626;-8.668;2022-09-14T10:28:47;101326.41;;;15.18;100.00
64352;BME280;50680;52.626;-8.668;2022-09-14T10:31:22;101326.84;;;15.25;100.00
64352;BME280;50680;52.626;-8.668;2022-09-14T10:33:53;101291.84;;;15.08;100.00
64352;BME280;50680;52.626;-8.668;2022-09-14T10:41:39;101306.66;;;15.23;100.00
64352;BME280;50680;52.626;-8.668;2022-09-14T11:01:32;101339.75;;;16.40;100.00
64352;BME280;50680;52.626;-8.668;2022-09-14T11:07:08;101336.34;;;16.27;100.00
64352;BME280;50680;52.626;-8.668;2022-09-14T11:10:18;101347.19;;;16.35;100.00
64352;BME280;50680;52.626;-8.668;2022-09-14T11:15:58;101338.03;;;16.87;100.00
64352;BME280;50680;52.626;-8.668;2022-09-14T11:21:37;101330.63;;;17.60;100.00
64352;BME280;50680;52.626;-8.668;2022-09-14T11:24:21;101330.41;;;17.86;100.00
64352;BME280;50680;52.626;-8.668;2022-09-14T11:35:41;101352.69;;;18.38;100.00
64352;BME280;50680;52.626;-8.668;2022-09-14T11:38:18;101336.19;;;18.56;100.00
64352;BME280;50680;52.626;-8.668;2022-09-14T11:43:57;101339.75;;;18.45;100.00
64352;BME280;50680;52.626;-8.668;2022-09-14T11:46:31;101349.53;;;18.45;100.00
64352;BME280;50680;52.626;-8.668;2022-09-14T11:54:33;101342.91;;;17.95;100.00
64352;BME280;50680;52.626;-8.668;2022-09-14T11:57:02;101318.31;;;17.93;100.00
64352;BME280;50680;52.626;-8.668;2022-09-14T12:18:22;101363.28;;;18.71;100.00
64352;BME280;50680;52.626;-8.668;2022-09-14T12:26:09;101360.06;;;18.67;100.00
64352;BME280;50680;52.626;-8.668;2022-09-14T12:28:50;101359.94;;;18.69;100.00
64352;BME280;50680;52.626;-8.668;2022-09-14T12:34:20;101350.38;;;18.01;100.00
64352;BME280;50680;52.626;-8.668;2022-09-14T12:39:29;101350.63;;;17.98;100.00
64352;BME280;50680;52.626;-8.668;2022-09-14T12:44:42;101361.66;;;18.15;100.00
64352;BME280;50680;52.626;-8.668;2022-09-14T12:49:53;101364.00;;;18.08;100.00
64352;BME280;50680;52.626;-8.668;2022-09-14T12:55:15;101364.44;;;18.13;100.00
64352;BME280;50680;52.626;-8.668;2022-09-14T13:01:09;101365.53;;;18.22;100.00
64352;BME280;50680;52.626;-8.668;2022-09-14T13:03:46;101357.13;;;17.83;100.00
64352;BME280;50680;52.626;-8.668;2022-09-14T13:06:14;101364.38;;;18.03;100.00
64352;BME280;50680;52.626;-8.668;2022-09-14T13:08:46;101354.63;;;17.93;100.00
64352;BME280;50680;52.626;-8.668;2022-09-14T13:11:20;101366.03;;;18.04;100.00
64352;BME280;50680;52.626;-8.668;2022-09-14T13:13:48;101362.44;;;17.83;100.00
64352;BME280;50680;52.626;-8.668;2022-09-14T13:16:23;101359.78;;;17.72;100.00
64352;BME280;50680;52.626;-8.668;2022-09-14T13:18:59;101361.94;;;18.12;100.00
64352;BME280;50680;52.626;-8.668;2022-09-14T13:21:27;101372.22;;;18.37;100.00
64352;BME280;50680;52.626;-8.668;2022-09-14T13:23:53;101378.06;;;18.31;100.00
64352;BME280;50680;52.626;-8.668;2022-09-14T13:26:24;101363.91;;;17.98;100.00
64352;BME280;50680;52.626;-8.668;2022-09-14T13:28:53;101375.38;;;17.88;100.00
64352;BME280;50680;52.626;-8.668;2022-09-14T13:31:33;101363.28;;;17.83;100.00
64352;BME280;50680;52.626;-8.668;2022-09-14T13:34:01;101370.16;;;17.97;100.00
64352;BME280;50680;52.626;-8.668;2022-09-14T13:36:39;101373.63;;;18.09;100.00
64352;BME280;50680;52.626;-8.668;2022-09-14T13:39:22;101370.09;;;18.31;100.00
64352;BME280;50680;52.626;-8.668;2022-09-14T13:41:50;101375.41;;;18.31;100.00
64352;BME280;50680;52.626;-8.668;2022-09-14T13:44:24;101376.91;;;18.45;100.00
64352;BME280;50680;52.626;-8.668;2022-09-14T13:46:53;101364.00;;;18.40;100.00
64352;BME280;50680;52.626;-8.668;2022-09-14T13:49:21;101372.75;;;18.31;100.00
64352;BME280;50680;52.626;-8.668;2022-09-14T13:51:48;101369.38;;;18.29;100.00
64352;BME280;50680;52.626;-8.668;2022-09-14T13:54:27;101373.28;;;18.02;100.00
64352;BME280;50680;52.626;-8.668;2022-09-14T13:57:15;101358.72;;;17.97;100.00
64352;BME280;50680;52.626;-8.668;2022-09-14T14:00:15;101361.25;;;17.98;100.00
64352;BME280;50680;52.626;-8.668;2022-09-14T14:02:59;101343.38;;;18.00;100.00
64352;BME280;50680;52.626;-8.668;2022-09-14T14:05:33;101348.81;;;17.99;100.00
64352;BME280;50680;52.626;-8.668;2022-09-14T14:08:01;101355.19;;;18.08;100.00
64352;BME280;50680;52.626;-8.668;2022-09-14T14:10:34;101344.50;;;18.30;100.00
64352;BME280;50680;52.626;-8.668;2022-09-14T14:13:03;101341.84;;;18.30;100.00
64352;BME280;50680;52.626;-8.668;2022-09-14T14:15:40;101354.09;;;18.42;100.00
64352;BME280;50680;52.626;-8.668;2022-09-14T14:18:48;101345.84;;;18.57;100.00
64352;BME280;50680;52.626;-8.668;2022-09-14T14:21:26;101348.88;;;19.06;100.00
64352;BME280;50680;52.626;-8.668;2022-09-14T14:26:54;101330.03;;;19.40;100.00
64352;BME280;50680;52.626;-8.668;2022-09-14T14:29:21;101341.81;;;19.57;100.00
64352;BME280;50680;52.626;-8.668;2022-09-14T14:31:49;101336.88;;;19.42;100.00
64352;BME280;50680;52.626;-8.668;2022-09-14T14:36:44;101336.31;;;19.39;100.00
64352;BME280;50680;52.626;-8.668;2022-09-14T14:39:13;101330.84;;;19.09;100.00
64352;BME280;50680;52.626;-8.668;2022-09-14T14:41:40;101328.72;;;18.82;100.00
64352;BME280;50680;52.626;-8.668;2022-09-14T14:44:13;101330.88;;;18.77;100.00
64352;BME280;50680;52.626;-8.668;2022-09-14T14:46:41;101335.88;;;18.70;100.00
64352;BME280;50680;52.626;-8.668;2022-09-14T14:49:12;101341.19;;;18.70;100.00
64352;BME280;50680;52.626;-8.668;2022-09-14T14:51:40;101341.53;;;18.98;100.00
64352;BME280;50680;52.626;-8.668;2022-09-14T14:54:08;101344.31;;;19.17;100.00
64352;BME280;50680;52.626;-8.668;2022-09-14T14:56:38;101332.19;;;19.25;100.00
64352;BME280;50680;52.626;-8.668;2022-09-14T14:59:26;101347.47;;;19.32;100.00
64352;BME280;50680;52.626;-8.668;2022-09-14T15:01:54;101338.22;;;19.27;100.00
64352;BME280;50680;52.626;-8.668;2022-09-14T15:04:22;101317.47;;;19.21;100.00
64352;BME280;50680;52.626;-8.668;2022-09-14T15:06:49;101330.72;;;19.42;100.00
64352;BME280;50680;52.626;-8.668;2022-09-14T15:09:24;101335.75;;;19.45;100.00
64352;BME280;50680;52.626;-8.668;2022-09-14T15:11:53;101317.56;;;19.50;100.00
64352;BME280;50680;52.626;-8.668;2022-09-14T15:14:22;101333.59;;;19.60;100.00
64352;BME280;50680;52.626;-8.668;2022-09-14T15:16:54;101337.13;;;19.70;100.00
64352;BME280;50680;52.626;-8.668;2022-09-14T15:19:25;101325.34;;;19.63;100.00
64352;BME280;50680;52.626;-8.668;2022-09-14T15:21:52;101320.66;;;19.76;100.00
64352;BME280;50680;52.626;-8.668;2022-09-14T15:24:27;101322.09;;;19.59;100.00
64352;BME280;50680;52.626;-8.668;2022-09-14T15:26:54;101325.00;;;19.46;99.73
64352;BME280;50680;52.626;-8.668;2022-09-14T15:29:21;101304.53;;;19.37;100.00
64352;BME280;50680;52.626;-8.668;2022-09-14T15:31:49;101314.09;;;19.19;100.00
64352;BME280;50680;52.626;-8.668;2022-09-14T15:34:16;101308.38;;;19.23;100.00
64352;BME280;50680;52.626;-8.668;2022-09-14T15:36:53;101333.69;;;19.17;100.00
64352;BME280;50680;52.626;-8.668;2022-09-14T15:39:26;101324.03;;;18.74;100.00
64352;BME280;50680;52.626;-8.668;2022-09-14T15:41:54;101327.78;;;18.72;100.00
64352;BME280;50680;52.626;-8.668;2022-09-14T15:44:21;101322.19;;;18.54;100.00
64352;BME280;50680;52.626;-8.668;2022-09-14T15:46:50;101331.09;;;18.64;100.00